Time;durP1;ratioP1;P1;durP2;ratioP2;P2;SDS_P1;SDS_P2;PMS_P1;PMS_P2;Temp;Humidity;BMP_temperature;BMP_pressure;BME280_temperature;BME280_humidity;BME280_pressure;Samples;Min_cycle;Max_cycle;Signal;HPM_P1;HPM_P2
2022/01/28 11:52:27;;;;;;;7.40;1.27;;;;;;;;;;5087824;28;20342;-48
2022/01/28 11:54:53;;;;;;;13.93;2.38;;;;;;;;;;5078172;28;20023;-47
2022/01/28 11:57:19;;;;;;;13.50;1.98;;;;;;;;;;5084411;28;20025;-48
2022/01/28 11:59:46;;;;;;;13.68;2.55;;;;;;;;;;5086091;28;20056;-50
2022/01/28 12:02:13;;;;;;;12.27;1.60;;;;;;;;;;5074227;28;21698;-50
2022/01/28 12:04:40;;;;;;;7.55;1.45;;;;;;;;;;5081882;28;20502;-48
2022/01/28 12:07:09;;;;;;;8.98;1.70;;;;;;;;;;5087828;28;20048;-49
2022/01/28 12:09:37;;;;;;;7.13;1.88;;;;;;;;;;5084499;28;20032;-48
2022/01/28 12:12:03;;;;;;;8.25;1.65;;;;;;;;;;5083261;28;20113;-48
2022/01/28 12:14:48;;;;;;;9.35;1.70;;;;;;;;;;5075241;28;20067;-48
2022/01/28 12:17:43;;;;;;;8.60;1.75;;;;;;;;;;5077591;28;20030;-51
2022/01/28 12:20:10;;;;;;;4.22;1.13;;;;;;;;;;5070873;28;20032;-50
2022/01/28 12:22:56;;;;;;;8.57;1.42;;;;;;;;;;5082406;28;20036;-49
2022/01/28 12:25:48;;;;;;;9.43;1.60;;;;;;;;;;5078197;28;20376;-50
2022/01/28 12:28:22;;;;;;;6.85;1.15;;;;;;;;;;5080083;28;20056;-49
2022/01/28 12:30:59;;;;;;;7.35;1.58;;;;;;;;;;5079187;28;20120;-49
2022/01/28 12:33:26;;;;;;;10.40;1.58;;;;;;;;;;5080940;28;20044;-49
2022/01/28 12:35:55;;;;;;;9.45;1.42;;;;;;;;;;5071868;28;20563;-53
2022/01/28 12:38:24;;;;;;;9.63;1.50;;;;;;;;;;5080976;28;20028;-50
2022/01/28 12:40:53;;;;;;;4.28;1.20;;;;;;;;;;5085900;28;20036;-50
2022/01/28 12:43:20;;;;;;;10.85;1.60;;;;;;;;;;5081938;28;20066;-49
2022/01/28 12:46:02;;;;;;;10.02;2.10;;;;;;;;;;5075988;28;20104;-50
2022/01/28 12:48:28;;;;;;;10.13;1.40;;;;;;;;;;5082792;28;20028;-48
2022/01/28 12:50:55;;;;;;;7.18;1.20;;;;;;;;;;5084571;28;20371;-50
2022/01/28 12:53:35;;;;;;;4.07;1.25;;;;;;;;;;5086569;28;20360;-49
2022/01/28 12:56:01;;;;;;;6.63;1.17;;;;;;;;;;5082160;28;20066;-50
2022/01/28 12:58:38;;;;;;;10.88;1.70;;;;;;;;;;5086235;28;20023;-49
2022/01/28 13:01:11;;;;;;;12.40;1.30;;;;;;;;;;5075848;28;20428;-49
2022/01/28 13:04:02;;;;;;;5.30;1.38;;;;;;;;;;5069973;28;20056;-50
2022/01/28 13:06:39;;;;;;;6.80;1.38;;;;;;;;;;5069477;28;20097;-49
2022/01/28 13:09:12;;;;;;;4.07;1.05;;;;;;;;;;5071942;28;20108;-50
2022/01/28 13:11:42;;;;;;;8.27;1.30;;;;;;;;;;5064683;28;20045;-50
2022/01/28 13:14:08;;;;;;;3.85;0.85;;;;;;;;;;5062992;28;20041;-49
2022/01/28 13:16:36;;;;;;;4.97;0.90;;;;;;;;;;5062110;28;20024;-50
2022/01/28 13:19:04;;;;;;;6.05;1.25;;;;;;;;;;5072529;28;20016;-49
2022/01/28 13:21:30;;;;;;;10.43;1.15;;;;;;;;;;5065088;28;20032;-49
2022/01/28 13:24:07;;;;;;;6.63;1.15;;;;;;;;;;5063197;28;20391;-53
2022/01/28 13:26:33;;;;;;;6.28;1.33;;;;;;;;;;5064056;28;20078;-48
2022/01/28 13:29:09;;;;;;;7.35;1.85;;;;;;;;;;5058274;28;20071;-49
2022/01/28 13:31:36;;;;;;;7.80;1.27;;;;;;;;;;5066152;28;20059;-53
2022/01/28 13:34:05;;;;;;;6.38;1.00;;;;;;;;;;5073322;28;20032;-52
2022/01/28 13:36:50;;;;;;;5.75;1.30;;;;;;;;;;5072548;28;20161;-50
2022/01/28 13:39:23;;;;;;;6.97;2.03;;;;;;;;;;5075366;28;20484;-50
2022/01/28 13:42:05;;;;;;;5.83;1.07;;;;;;;;;;5073018;28;20086;-48
2022/01/28 13:44:34;;;;;;;8.63;1.40;;;;;;;;;;5062746;28;20020;-50
2022/01/28 13:47:01;;;;;;;6.85;1.23;;;;;;;;;;5061021;28;20032;-49
2022/01/28 13:49:32;;;;;;;5.85;1.50;;;;;;;;;;5061553;28;20016;-52
2022/01/28 13:52:12;;;;;;;10.88;1.38;;;;;;;;;;5069916;28;20380;-50
2022/01/28 13:54:38;;;;;;;8.90;1.23;;;;;;;;;;5062023;28;20028;-48
2022/01/28 13:57:05;;;;;;;5.63;1.40;;;;;;;;;;5065683;28;20039;-50
2022/01/28 13:59:32;;;;;;;5.38;1.70;;;;;;;;;;5061043;28;20373;-48
2022/01/28 14:02:01;;;;;;;3.10;1.20;;;;;;;;;;5067725;28;20063;-50
2022/01/28 14:04:37;;;;;;;4.45;1.23;;;;;;;;;;5073267;28;20095;-48
2022/01/28 14:07:09;;;;;;;2.88;1.38;;;;;;;;;;5066936;28;20107;-49
2022/01/28 14:09:51;;;;;;;6.13;1.63;;;;;;;;;;5069017;28;20115;-48
2022/01/28 14:12:23;;;;;;;4.05;1.20;;;;;;;;;;5065861;28;20036;-49
2022/01/28 14:14:51;;;;;;;9.25;0.93;;;;;;;;;;5073380;28;20028;-48
2022/01/28 14:17:17;;;;;;;5.68;1.02;;;;;;;;;;5065288;28;20071;-49
2022/01/28 14:19:44;;;;;;;6.97;1.20;;;;;;;;;;5060687;28;20362;-50
2022/01/28 14:22:12;;;;;;;4.90;1.40;;;;;;;;;;5066714;28;20034;-48
2022/01/28 14:24:39;;;;;;;6.47;1.83;;;;;;;;;;5075285;28;20540;-50
2022/01/28 14:32:02;;;;;;;5.50;1.08;;;;;;;;;;5058411;28;20044;-48
2022/01/28 14:34:28;;;;;;;4.55;0.98;;;;;;;;;;5068358;28;20149;-49
2022/01/28 14:36:55;;;;;;;6.00;1.27;;;;;;;;;;5066838;28;20135;-48
2022/01/28 14:39:21;;;;;;;4.07;0.98;;;;;;;;;;5065148;28;20090;-49
2022/01/28 14:41:49;;;;;;;6.22;1.15;;;;;;;;;;5063627;28;20025;-51
2022/01/28 14:44:15;;;;;;;2.92;0.98;;;;;;;;;;5069644;28;20108;-53
2022/01/28 14:46:41;;;;;;;9.30;1.50;;;;;;;;;;5064794;28;20524;-51
2022/01/28 14:49:08;;;;;;;3.95;1.40;;;;;;;;;;5066304;28;20536;-52
2022/01/28 14:51:34;;;;;;;9.05;1.75;;;;;;;;;;5062095;28;20132;-52
2022/01/28 14:54:01;;;;;;;3.78;0.90;;;;;;;;;;5062148;28;20111;-51
2022/01/28 14:56:27;;;;;;;5.03;1.40;;;;;;;;;;5066207;28;20495;-48
2022/01/28 14:58:53;;;;;;;7.35;0.90;;;;;;;;;;5067781;28;20035;-50
2022/01/28 15:01:19;;;;;;;9.00;1.17;;;;;;;;;;5070134;28;20020;-48
2022/01/28 15:03:45;;;;;;;3.88;0.95;;;;;;;;;;5070134;28;20123;-49
2022/01/28 15:06:14;;;;;;;10.70;1.48;;;;;;;;;;5072325;28;20514;-50
2022/01/28 15:08:43;;;;;;;9.63;1.00;;;;;;;;;;5069595;28;20025;-51
2022/01/28 15:11:13;;;;;;;7.35;1.35;;;;;;;;;;5072760;28;20111;-48
2022/01/28 15:13:40;;;;;;;7.30;1.25;;;;;;;;;;5069989;28;20119;-50
2022/01/28 15:16:06;;;;;;;6.55;1.20;;;;;;;;;;5066340;28;20044;-50
2022/01/28 15:18:32;;;;;;;5.38;1.27;;;;;;;;;;5068625;28;20063;-48
2022/01/28 15:20:59;;;;;;;6.35;1.08;;;;;;;;;;5064258;28;20029;-51
2022/01/28 15:23:25;;;;;;;9.63;2.40;;;;;;;;;;5064335;28;20025;-50
2022/01/28 15:25:51;;;;;;;6.82;1.05;;;;;;;;;;5065374;28;20028;-49
2022/01/28 15:28:19;;;;;;;7.65;1.38;;;;;;;;;;5064678;28;20029;-48
2022/01/28 15:36:17;;;;;;;9.95;2.05;;;;;;;;;;5066939;28;20043;-49
2022/01/28 15:38:43;;;;;;;9.38;1.55;;;;;;;;;;5068704;28;20103;-48
2022/01/28 15:41:12;;;;;;;8.50;1.42;;;;;;;;;;5068842;28;20131;-48
2022/01/28 15:43:38;;;;;;;10.65;1.55;;;;;;;;;;5065974;28;20029;-49
2022/01/28 15:46:05;;;;;;;6.03;1.23;;;;;;;;;;5070544;28;20040;-52
2022/01/28 15:48:31;;;;;;;3.38;1.10;;;;;;;;;;5064937;28;20111;-50
2022/01/28 15:50:57;;;;;;;4.18;1.40;;;;;;;;;;5065206;28;20131;-49
2022/01/28 15:53:24;;;;;;;9.98;1.77;;;;;;;;;;5064184;28;20032;-50
2022/01/28 15:55:50;;;;;;;4.72;1.27;;;;;;;;;;5064101;28;20420;-49
2022/01/28 15:58:16;;;;;;;10.00;1.42;;;;;;;;;;5060090;28;20031;-49
2022/01/28 16:00:43;;;;;;;5.50;1.20;;;;;;;;;;5065691;28;20037;-49
2022/01/28 16:03:09;;;;;;;6.57;1.30;;;;;;;;;;5065828;28;20020;-50
2022/01/28 16:05:36;;;;;;;8.77;1.50;;;;;;;;;;5064561;28;20044;-49
2022/01/28 16:08:02;;;;;;;8.55;2.17;;;;;;;;;;5067020;28;20025;-49
2022/01/28 16:10:39;;;;;;;12.48;1.75;;;;;;;;;;5064648;28;20147;-53
2022/01/28 16:18:03;;;;;;;3.22;1.20;;;;;;;;;;5054462;28;20032;-49
2022/01/28 16:20:30;;;;;;;8.77;1.58;;;;;;;;;;5065910;28;20672;-51
2022/01/28 16:22:56;;;;;;;5.65;1.42;;;;;;;;;;5068696;28;20032;-48
2022/01/28 16:25:22;;;;;;;5.70;1.20;;;;;;;;;;5070014;28;20021;-51
2022/01/28 16:27:48;;;;;;;4.88;1.40;;;;;;;;;;5062151;28;20031;-50
2022/01/28 16:30:13;;;;;;;6.60;1.75;;;;;;;;;;5059101;28;20479;-53
2022/01/28 16:32:39;;;;;;;5.03;1.30;;;;;;;;;;5064648;28;20111;-50
2022/01/28 16:35:06;;;;;;;11.00;2.38;;;;;;;;;;5062862;28;20040;-50
2022/01/28 16:37:32;;;;;;;9.05;1.60;;;;;;;;;;5059351;28;20155;-54
2022/01/28 16:39:58;;;;;;;5.78;1.13;;;;;;;;;;5075904;28;20021;-51
2022/01/28 16:42:35;;;;;;;7.60;1.40;;;;;;;;;;5073197;28;20040;-49
2022/01/28 16:45:01;;;;;;;6.80;1.30;;;;;;;;;;5065065;28;20021;-49
2022/01/28 16:47:28;;;;;;;4.13;1.08;;;;;;;;;;5058690;28;20366;-49
2022/01/28 16:49:55;;;;;;;10.07;1.75;;;;;;;;;;5065010;28;20051;-48
2022/01/28 16:52:21;;;;;;;4.63;1.15;;;;;;;;;;5067073;28;20047;-48
2022/01/28 16:54:48;;;;;;;6.20;1.55;;;;;;;;;;5065915;28;20029;-48
2022/01/28 16:57:14;;;;;;;5.22;1.67;;;;;;;;;;5070782;28;20036;-48
2022/01/28 16:59:43;;;;;;;6.97;1.35;;;;;;;;;;5071007;28;20021;-49
2022/01/28 17:02:10;;;;;;;8.13;1.08;;;;;;;;;;5070849;28;20051;-48
2022/01/28 17:04:36;;;;;;;9.00;1.35;;;;;;;;;;5076491;28;20109;-50
2022/01/28 17:07:02;;;;;;;5.85;1.23;;;;;;;;;;5072399;28;20111;-48
2022/01/28 17:09:32;;;;;;;11.05;1.40;;;;;;;;;;5068033;28;20024;-48
2022/01/28 17:14:51;;;;;;;8.05;1.20;;;;;;;;;;5053187;28;20710;-48
2022/01/28 17:17:18;;;;;;;4.47;1.20;;;;;;;;;;5069652;28;20107;-48
2022/01/28 17:19:44;;;;;;;5.20;1.38;;;;;;;;;;5075957;28;20021;-48
2022/01/28 17:22:10;;;;;;;7.60;1.10;;;;;;;;;;5071299;28;20029;-51
2022/01/28 17:24:36;;;;;;;5.72;1.45;;;;;;;;;;5074194;28;20021;-52
2022/01/28 17:27:03;;;;;;;5.45;1.48;;;;;;;;;;5071428;28;20357;-50
2022/01/28 17:29:29;;;;;;;13.93;1.60;;;;;;;;;;5065942;28;20024;-48
2022/01/28 17:31:55;;;;;;;4.22;1.65;;;;;;;;;;5067784;28;20036;-48
2022/01/28 17:34:21;;;;;;;11.95;1.60;;;;;;;;;;5068598;28;20107;-50
2022/01/28 17:36:47;;;;;;;6.85;1.63;;;;;;;;;;5071671;28;20040;-52
2022/01/28 17:39:13;;;;;;;12.02;1.52;;;;;;;;;;5069727;28;20431;-50
2022/01/28 17:41:41;;;;;;;8.48;1.20;;;;;;;;;;5070075;28;20415;-50
2022/01/28 17:44:07;;;;;;;6.60;1.48;;;;;;;;;;5070181;28;20060;-51
2022/01/28 17:46:33;;;;;;;8.05;1.65;;;;;;;;;;5058398;28;20124;-48
2022/01/28 17:48:59;;;;;;;3.45;1.23;;;;;;;;;;5072930;28;20084;-51
2022/01/28 17:51:28;;;;;;;5.80;1.83;;;;;;;;;;5066036;28;20056;-53
2022/01/28 17:53:55;;;;;;;5.78;1.42;;;;;;;;;;5068174;28;20032;-52
2022/01/28 17:56:21;;;;;;;6.22;1.50;;;;;;;;;;5069931;28;20066;-48
2022/01/28 17:58:47;;;;;;;5.25;1.58;;;;;;;;;;5070983;28;20032;-49
2022/01/28 18:01:13;;;;;;;10.68;1.60;;;;;;;;;;5065769;28;20461;-48
2022/01/28 18:03:39;;;;;;;6.75;1.58;;;;;;;;;;5075707;28;20103;-52
2022/01/28 18:06:05;;;;;;;9.95;1.80;;;;;;;;;;5063147;28;20191;-49
2022/01/28 18:08:32;;;;;;;9.50;2.00;;;;;;;;;;5068635;28;20024;-51
2022/01/28 18:10:59;;;;;;;6.18;1.48;;;;;;;;;;5071383;28;20078;-48
2022/01/28 18:13:25;;;;;;;9.18;1.80;;;;;;;;;;5070332;28;20474;-50
2022/01/28 18:15:51;;;;;;;9.98;2.00;;;;;;;;;;5071723;28;20123;-53
2022/01/28 18:18:17;;;;;;;7.72;1.88;;;;;;;;;;5066445;28;20112;-48
2022/01/28 18:20:44;;;;;;;15.93;2.17;;;;;;;;;;5063767;28;20040;-50
2022/01/28 18:23:10;;;;;;;12.43;1.70;;;;;;;;;;5071195;28;20016;-50
2022/01/28 18:25:36;;;;;;;3.72;1.55;;;;;;;;;;5067354;28;20556;-49
2022/01/28 18:28:02;;;;;;;7.72;2.45;;;;;;;;;;5059101;28;20071;-48
2022/01/28 18:30:28;;;;;;;9.15;2.15;;;;;;;;;;5063643;28;20036;-49
2022/01/28 18:32:55;;;;;;;7.22;1.63;;;;;;;;;;5073403;28;20025;-52
2022/01/28 18:35:21;;;;;;;12.38;1.70;;;;;;;;;;5070737;28;20032;-53
2022/01/28 18:37:47;;;;;;;8.55;1.73;;;;;;;;;;5073937;28;20035;-51
2022/01/28 18:40:18;;;;;;;8.60;1.83;;;;;;;;;;5067398;28;20034;-48
2022/01/28 18:42:51;;;;;;;9.30;1.90;;;;;;;;;;5065357;28;20029;-49
2022/01/28 18:45:18;;;;;;;7.97;2.55;;;;;;;;;;5073029;28;20052;-48
2022/01/28 18:47:44;;;;;;;5.00;1.95;;;;;;;;;;5064485;28;20469;-51
2022/01/28 18:50:11;;;;;;;6.45;1.63;;;;;;;;;;5069958;28;20111;-49
2022/01/28 18:52:37;;;;;;;10.93;1.90;;;;;;;;;;5065886;28;20012;-50
2022/01/28 18:55:03;;;;;;;9.85;1.90;;;;;;;;;;5069546;28;20044;-50
2022/01/28 18:57:29;;;;;;;16.30;2.47;;;;;;;;;;5068564;28;20101;-50
2022/01/28 18:59:56;;;;;;;9.18;2.03;;;;;;;;;;5068043;28;20031;-48
2022/01/28 19:02:25;;;;;;;12.68;2.28;;;;;;;;;;5057177;28;20492;-49
2022/01/28 19:04:51;;;;;;;12.55;1.92;;;;;;;;;;5072185;28;20413;-48
2022/01/28 19:07:17;;;;;;;11.02;2.38;;;;;;;;;;5071831;28;20028;-52
2022/01/28 19:09:43;;;;;;;15.43;1.95;;;;;;;;;;5071551;28;20028;-50
2022/01/28 19:12:12;;;;;;;12.45;2.70;;;;;;;;;;5066422;28;20090;-50
2022/01/28 19:14:38;;;;;;;9.65;2.05;;;;;;;;;;5060867;28;20338;-48
2022/01/28 19:17:05;;;;;;;6.60;1.75;;;;;;;;;;5065608;28;20070;-49
2022/01/28 19:19:30;;;;;;;13.95;2.28;;;;;;;;;;5069517;28;20122;-48
2022/01/28 19:21:56;;;;;;;13.65;1.85;;;;;;;;;;5058380;28;20033;-53
2022/01/28 19:24:22;;;;;;;13.73;2.42;;;;;;;;;;5071389;28;20063;-49
2022/01/28 19:26:48;;;;;;;10.43;1.73;;;;;;;;;;5064170;28;20147;-49
2022/01/28 19:29:14;;;;;;;10.50;2.08;;;;;;;;;;5069723;28;20036;-48
2022/01/28 19:31:40;;;;;;;8.48;2.13;;;;;;;;;;5067295;28;20033;-49
2022/01/28 19:34:06;;;;;;;12.75;2.22;;;;;;;;;;5071883;28;20029;-48
2022/01/28 19:36:32;;;;;;;10.18;2.08;;;;;;;;;;5072292;28;20029;-48
2022/01/28 19:38:58;;;;;;;12.73;2.88;;;;;;;;;;5072961;28;20025;-52
2022/01/28 19:41:24;;;;;;;8.65;2.13;;;;;;;;;;5066824;28;20024;-54
2022/01/28 19:43:50;;;;;;;11.80;2.50;;;;;;;;;;5072763;28;20031;-51
2022/01/28 19:46:17;;;;;;;14.18;2.42;;;;;;;;;;5068356;28;20515;-54
2022/01/28 19:48:43;;;;;;;15.80;2.45;;;;;;;;;;5069071;28;20025;-52
2022/01/28 19:51:10;;;;;;;14.13;2.40;;;;;;;;;;5060820;28;20059;-49
2022/01/28 19:53:37;;;;;;;15.68;2.33;;;;;;;;;;5057460;28;20545;-52
2022/01/28 19:56:04;;;;;;;12.65;2.30;;;;;;;;;;5066377;28;20055;-50
2022/01/28 19:58:30;;;;;;;4.88;2.08;;;;;;;;;;5072919;28;20029;-51
2022/01/28 20:00:56;;;;;;;16.40;3.28;;;;;;;;;;5057950;28;20484;-53
2022/01/28 20:03:22;;;;;;;12.30;2.25;;;;;;;;;;5070852;28;20368;-48
2022/01/28 20:05:48;;;;;;;13.32;2.75;;;;;;;;;;5053196;28;20040;-51
2022/01/28 20:08:15;;;;;;;18.02;3.03;;;;;;;;;;5064533;28;20033;-52
2022/01/28 20:10:41;;;;;;;16.40;2.80;;;;;;;;;;5070016;28;20110;-48
2022/01/28 20:13:08;;;;;;;16.23;2.47;;;;;;;;;;5071123;28;20035;-51
2022/01/28 20:15:34;;;;;;;14.65;2.65;;;;;;;;;;5071659;28;20021;-49
2022/01/28 20:18:00;;;;;;;15.52;3.58;;;;;;;;;;5076009;28;20029;-53
2022/01/28 20:20:26;;;;;;;20.17;3.72;;;;;;;;;;5060810;28;20025;-49
2022/01/28 20:22:52;;;;;;;12.18;2.78;;;;;;;;;;5071998;28;20108;-53
2022/01/28 20:25:19;;;;;;;9.63;2.13;;;;;;;;;;5074371;28;20020;-49
2022/01/28 20:27:46;;;;;;;12.20;2.28;;;;;;;;;;5072064;28;20033;-48
2022/01/28 20:30:13;;;;;;;12.57;2.35;;;;;;;;;;5065244;28;20028;-52
2022/01/28 20:32:39;;;;;;;14.35;2.70;;;;;;;;;;5064965;28;20025;-50
2022/01/28 20:35:05;;;;;;;16.20;2.80;;;;;;;;;;5074146;28;20028;-52
2022/01/28 20:37:31;;;;;;;12.98;2.40;;;;;;;;;;5073961;28;20063;-51
2022/01/28 20:39:58;;;;;;;12.63;2.15;;;;;;;;;;5063705;28;20028;-53
2022/01/28 20:42:24;;;;;;;14.68;2.33;;;;;;;;;;5072475;28;20062;-54
2022/01/28 20:44:50;;;;;;;10.73;2.08;;;;;;;;;;5067248;28;20074;-52
2022/01/28 20:47:16;;;;;;;15.73;2.17;;;;;;;;;;5071997;28;20454;-49
2022/01/28 20:49:42;;;;;;;9.55;2.28;;;;;;;;;;5076951;28;20021;-49
2022/01/28 20:52:11;;;;;;;16.23;2.33;;;;;;;;;;5069567;28;20608;-48
2022/01/28 20:54:37;;;;;;;4.57;1.77;;;;;;;;;;5058891;28;20358;-48
2022/01/28 20:57:03;;;;;;;13.60;2.47;;;;;;;;;;5074207;28;20124;-51
2022/01/28 20:59:29;;;;;;;10.60;2.55;;;;;;;;;;5063420;28;20072;-49
2022/01/28 21:01:55;;;;;;;11.40;2.28;;;;;;;;;;5062073;28;20033;-48
2022/01/28 21:04:21;;;;;;;15.57;2.20;;;;;;;;;;5073683;28;20028;-49
2022/01/28 21:06:48;;;;;;;8.13;2.30;;;;;;;;;;5066534;28;20032;-51
2022/01/28 21:09:14;;;;;;;8.90;2.13;;;;;;;;;;5065720;28;20501;-48
2022/01/28 21:11:40;;;;;;;6.40;2.33;;;;;;;;;;5082329;28;20033;-50
2022/01/28 21:14:06;;;;;;;17.85;2.92;;;;;;;;;;5067949;28;20043;-48
2022/01/28 21:16:35;;;;;;;10.50;2.13;;;;;;;;;;5069353;28;20111;-50
2022/01/28 21:19:00;;;;;;;14.50;2.83;;;;;;;;;;5073502;28;20032;-49
2022/01/28 21:21:26;;;;;;;12.82;3.05;;;;;;;;;;5066188;28;20425;-49
2022/01/28 21:23:52;;;;;;;12.35;2.38;;;;;;;;;;5072813;28;20021;-49
2022/01/28 21:26:18;;;;;;;13.20;2.35;;;;;;;;;;5073445;28;20035;-49
2022/01/28 21:28:44;;;;;;;8.55;2.47;;;;;;;;;;5075817;28;20044;-49
2022/01/28 21:31:10;;;;;;;6.90;2.45;;;;;;;;;;5075230;28;20036;-51
2022/01/28 21:33:36;;;;;;;14.60;2.75;;;;;;;;;;5064479;28;20104;-49
2022/01/28 21:36:03;;;;;;;11.75;3.03;;;;;;;;;;5064371;28;20025;-48
2022/01/28 21:38:29;;;;;;;11.90;2.75;;;;;;;;;;5064343;28;20025;-49
2022/01/28 21:40:56;;;;;;;16.83;2.20;;;;;;;;;;5063055;28;20036;-49
2022/01/28 21:43:23;;;;;;;21.55;2.05;;;;;;;;;;5061869;28;20086;-51
2022/01/28 21:45:49;;;;;;;10.00;2.03;;;;;;;;;;5071347;28;20035;-51
2022/01/28 21:48:15;;;;;;;9.52;1.98;;;;;;;;;;5066680;28;20024;-54
2022/01/28 21:50:41;;;;;;;9.05;1.60;;;;;;;;;;5074334;28;20071;-51
2022/01/28 21:53:10;;;;;;;14.20;2.80;;;;;;;;;;5073255;28;20488;-52
2022/01/28 21:55:36;;;;;;;18.65;3.03;;;;;;;;;;5068277;28;20033;-51
2022/01/28 21:58:03;;;;;;;11.15;2.05;;;;;;;;;;5061297;28;20366;-53
2022/01/28 22:00:29;;;;;;;9.25;2.35;;;;;;;;;;5063252;28;20507;-49
2022/01/28 22:02:55;;;;;;;12.75;2.97;;;;;;;;;;5069558;28;20028;-49
2022/01/28 22:05:21;;;;;;;8.48;2.35;;;;;;;;;;5063875;28;20035;-51
2022/01/28 22:07:47;;;;;;;17.73;2.42;;;;;;;;;;5064838;28;20146;-49
2022/01/28 22:10:13;;;;;;;10.38;2.13;;;;;;;;;;5058771;28;20039;-49
2022/01/28 22:12:40;;;;;;;11.45;2.40;;;;;;;;;;5071368;28;20039;-51
2022/01/28 22:15:06;;;;;;;12.02;3.28;;;;;;;;;;5072288;28;20500;-48
2022/01/28 22:17:32;;;;;;;9.63;2.40;;;;;;;;;;5072766;28;20074;-50
2022/01/28 22:19:58;;;;;;;12.68;2.20;;;;;;;;;;5067005;28;20445;-51
2022/01/28 22:22:24;;;;;;;10.90;2.15;;;;;;;;;;5067564;28;20033;-50
2022/01/28 22:24:50;;;;;;;12.20;3.10;;;;;;;;;;5066775;28;20044;-50
2022/01/28 22:27:16;;;;;;;14.70;2.95;;;;;;;;;;5065552;28;20032;-49
2022/01/28 22:29:42;;;;;;;14.02;3.28;;;;;;;;;;5058894;28;20021;-53
2022/01/28 22:32:08;;;;;;;11.40;2.38;;;;;;;;;;5066673;28;20028;-50
2022/01/28 22:34:34;;;;;;;11.88;2.15;;;;;;;;;;5062204;28;20087;-49
2022/01/28 22:37:01;;;;;;;14.93;2.90;;;;;;;;;;5063131;28;20037;-49
2022/01/28 22:39:27;;;;;;;9.77;2.20;;;;;;;;;;5065027;28;20063;-48
2022/01/28 22:41:53;;;;;;;9.60;1.80;;;;;;;;;;5066491;28;20142;-53
2022/01/28 22:44:20;;;;;;;18.67;2.50;;;;;;;;;;5064848;28;20103;-52
2022/01/28 22:46:46;;;;;;;13.27;3.22;;;;;;;;;;5068795;28;20017;-50
2022/01/28 22:49:12;;;;;;;7.97;2.50;;;;;;;;;;5066737;28;20020;-51
2022/01/28 22:51:38;;;;;;;16.27;2.60;;;;;;;;;;5062824;28;20400;-51
2022/01/28 22:54:05;;;;;;;5.45;1.60;;;;;;;;;;5065720;28;20495;-52
2022/01/28 22:56:32;;;;;;;9.25;2.55;;;;;;;;;;5068577;28;20029;-51
2022/01/28 22:58:58;;;;;;;11.10;2.58;;;;;;;;;;5063165;28;20029;-53
2022/01/28 23:01:25;;;;;;;15.60;2.90;;;;;;;;;;5071628;28;20089;-52
2022/01/28 23:03:51;;;;;;;13.63;2.33;;;;;;;;;;5064143;28;20025;-49
2022/01/28 23:06:19;;;;;;;16.45;2.72;;;;;;;;;;5065865;28;20032;-48
2022/01/28 23:08:45;;;;;;;15.38;2.88;;;;;;;;;;5060433;28;20029;-49
2022/01/28 23:11:11;;;;;;;15.38;3.65;;;;;;;;;;5061290;28;20090;-52
2022/01/28 23:13:36;;;;;;;11.00;2.13;;;;;;;;;;5070125;28;20033;-48
2022/01/28 23:16:02;;;;;;;19.77;3.38;;;;;;;;;;5067065;28;20640;-51
2022/01/28 23:18:28;;;;;;;11.25;2.42;;;;;;;;;;5069002;28;20032;-50
2022/01/28 23:20:54;;;;;;;16.90;3.28;;;;;;;;;;5064287;28;20384;-50
2022/01/28 23:23:20;;;;;;;24.08;3.10;;;;;;;;;;5058075;28;20025;-49
2022/01/28 23:25:46;;;;;;;11.23;2.28;;;;;;;;;;5060427;28;20408;-49
2022/01/28 23:28:16;;;;;;;12.57;2.47;;;;;;;;;;5061874;28;20037;-49
2022/01/28 23:30:42;;;;;;;6.53;2.05;;;;;;;;;;5063551;28;20188;-48
2022/01/28 23:33:08;;;;;;;15.07;2.40;;;;;;;;;;5059217;28;20040;-48
2022/01/28 23:35:34;;;;;;;16.83;3.08;;;;;;;;;;5070915;28;20013;-50
2022/01/28 23:38:00;;;;;;;9.15;2.17;;;;;;;;;;5069405;28;20039;-48
2022/01/28 23:40:26;;;;;;;8.68;2.38;;;;;;;;;;5072777;28;20025;-48
2022/01/28 23:42:52;;;;;;;8.30;2.30;;;;;;;;;;5061382;28;20048;-51
2022/01/28 23:45:18;;;;;;;13.07;2.05;;;;;;;;;;5072834;28;20062;-51
2022/01/28 23:47:46;;;;;;;11.43;3.58;;;;;;;;;;5072179;28;20057;-52
2022/01/28 23:50:12;;;;;;;7.65;2.00;;;;;;;;;;5066652;28;20061;-51
2022/01/28 23:52:38;;;;;;;9.35;1.88;;;;;;;;;;5059734;28;20040;-53
2022/01/28 23:55:04;;;;;;;14.80;2.85;;;;;;;;;;5065503;28;20564;-51
2022/01/28 23:57:30;;;;;;;7.35;2.28;;;;;;;;;;5072640;28;20028;-51
2022/01/28 23:59:56;;;;;;;17.55;3.58;;;;;;;;;;5071965;28;20043;-49
